Time,TemperatureF,DewpointF,PressureIn,WindDirection,WindDirectionDegrees,WindSpeedMPH,WindSpeedGustMPH,Humidity,HourlyPrecipIn,Conditions,Clouds,dailyrainin,SoftwareType,DateUTC
2013-09-02 00:00:00,84.0,79.7,29.70,SE,146,0.0,4.0,87,0.00,,---,0.00,VWS V14.01,2013-09-01 18:30:00,
2013-09-02 00:15:00,83.8,79.9,29.70,SE,146,0.0,3.0,88,0.00,,---,0.00,VWS V14.01,2013-09-01 18:45:00,
2013-09-02 00:30:00,83.8,79.9,29.70,SE,146,0.0,3.0,88,0.00,,---,0.00,VWS V14.01,2013-09-01 19:00:00,
2013-09-02 00:45:00,83.8,79.9,29.70,SE,146,3.0,6.0,88,0.00,,---,0.00,VWS V14.01,2013-09-01 19:15:00,
2013-09-02 01:00:00,83.8,79.9,29.70,SE,146,0.0,8.0,88,0.00,,---,0.00,VWS V14.01,2013-09-01 19:30:00,
2013-09-02 01:15:00,83.6,80.0,29.70,SE,146,2.0,4.0,89,0.00,,---,0.00,VWS V14.01,2013-09-01 19:45:00,
2013-09-02 01:30:00,83.4,79.8,29.69,SE,146,0.0,5.0,89,0.00,,---,0.00,VWS V14.01,2013-09-01 20:00:00,
2013-09-02 01:45:00,83.4,79.8,29.68,SE,146,2.0,6.0,89,0.00,,---,0.00,VWS V14.01,2013-09-01 20:15:00,
2013-09-02 02:00:00,83.4,79.5,29.67,SE,146,0.0,8.0,88,0.00,,---,0.00,VWS V14.01,2013-09-01 20:30:00,
2013-09-02 02:15:00,83.2,79.3,29.67,SSE,150,0.0,8.0,88,0.00,,---,0.00,VWS V14.01,2013-09-01 20:45:00,
2013-09-02 02:30:00,83.2,79.6,29.67,SSE,150,5.0,8.0,89,0.00,,---,0.00,VWS V14.01,2013-09-01 21:00:00,
2013-09-02 02:45:00,83.0,79.4,29.67,SSE,150,6.0,9.0,89,0.00,,---,0.00,VWS V14.01,2013-09-01 21:15:00,
2013-09-02 03:00:00,82.8,79.2,29.66,SSE,150,2.0,7.0,89,0.00,,---,0.00,VWS V14.01,2013-09-01 21:30:00,
2013-09-02 03:15:00,82.8,78.9,29.66,SSE,156,1.0,11.0,88,0.00,,---,0.00,VWS V14.01,2013-09-01 21:45:00,
2013-09-02 03:30:00,82.8,78.5,29.66,South,183,0.0,12.0,87,0.00,,---,0.00,VWS V14.01,2013-09-01 22:00:00,
2013-09-02 03:45:00,82.6,78.0,29.66,South,188,2.0,12.0,86,0.00,,---,0.00,VWS V14.01,2013-09-01 22:15:00,
2013-09-02 04:00:00,82.6,78.0,29.67,SSW,192,4.0,11.0,86,0.00,,---,0.00,VWS V14.01,2013-09-01 22:30:00,
2013-09-02 04:15:00,82.2,77.9,29.67,SSW,192,0.0,10.0,87,0.00,,---,0.00,VWS V14.01,2013-09-01 22:45:00,
2013-09-02 04:30:00,82.2,77.9,29.67,SSW,198,2.0,10.0,87,0.00,,---,0.00,VWS V14.01,2013-09-01 23:00:00,
2013-09-02 04:45:00,81.8,77.6,29.67,SSW,198,3.0,6.0,87,0.00,,---,0.00,VWS V14.01,2013-09-01 23:15:00,
2013-09-02 05:00:00,81.6,77.7,29.66,SSW,198,0.0,6.0,88,0.00,,---,0.00,VWS V14.01,2013-09-01 23:30:00,
2013-09-02 05:15:00,81.6,77.7,29.67,SSW,198,2.0,8.0,88,0.00,,---,0.00,VWS V14.01,2013-09-01 23:45:00,
2013-09-02 05:30:00,81.6,77.7,29.67,SSW,198,0.0,7.0,88,0.00,,---,0.00,VWS V14.01,2013-09-02 00:00:00,
2013-09-02 05:45:00,81.4,77.5,29.67,SSW,198,0.0,5.0,88,0.00,,---,0.00,VWS V14.01,2013-09-02 00:15:00,
2013-09-02 06:00:00,81.2,77.7,29.67,SSW,198,0.0,4.0,89,0.00,,---,0.00,VWS V14.01,2013-09-02 00:30:00,
2013-09-02 06:15:00,81.2,77.7,29.68,SSW,198,0.0,1.0,89,0.00,,---,0.00,VWS V14.01,2013-09-02 00:45:00,
2013-09-02 06:30:00,81.2,77.7,29.69,SSW,198,0.0,1.0,89,0.00,,---,0.00,VWS V14.01,2013-09-02 01:00:00,
2013-09-02 06:45:00,81.8,77.9,29.69,SSW,198,0.0,1.0,88,0.00,,---,0.00,VWS V14.01,2013-09-02 01:15:00,
2013-09-02 07:00:00,82.6,78.3,29.69,SSW,198,0.0,5.0,87,0.00,,---,0.00,VWS V14.01,2013-09-02 01:30:00,
2013-09-02 07:15:00,83.4,78.4,29.70,SSW,198,0.0,1.0,85,0.00,,---,0.00,VWS V14.01,2013-09-02 01:45:00,
2013-09-02 07:30:00,84.0,78.7,29.71,SSW,198,3.0,4.0,84,0.00,,---,0.00,VWS V14.01,2013-09-02 02:00:00,
2013-09-02 07:45:00,84.5,78.8,29.71,SSW,198,0.0,5.0,83,0.00,,---,0.00,VWS V14.01,2013-09-02 02:15:00,
2013-09-02 08:00:00,86.5,79.6,29.72,SSW,198,0.0,3.0,80,0.00,,---,0.00,VWS V14.01,2013-09-02 02:30:00,
2013-09-02 08:15:00,87.4,80.1,29.72,SSW,198,0.0,3.0,79,0.00,,---,0.00,VWS V14.01,2013-09-02 02:45:00,
2013-09-02 08:30:00,88.4,80.3,29.72,SSW,198,3.0,3.0,77,0.00,,---,0.00,VWS V14.01,2013-09-02 03:00:00,
2013-09-02 08:45:00,88.6,80.1,29.72,SSW,198,0.0,4.0,76,0.00,,---,0.00,VWS V14.01,2013-09-02 03:15:00,
2013-09-02 09:00:00,89.0,79.6,29.72,SSW,199,0.0,5.0,74,0.00,,---,0.00,VWS V14.01,2013-09-02 03:30:00,
2013-09-02 09:15:00,91.2,78.7,29.73,SSW,199,2.0,5.0,67,0.00,,---,0.00,VWS V14.01,2013-09-02 03:45:00,
2013-09-02 09:30:00,91.2,78.7,29.72,SSW,199,0.0,4.0,67,0.00,,---,0.00,VWS V14.01,2013-09-02 04:00:00,
2013-09-02 09:45:00,93.2,79.2,29.72,SSW,199,0.0,3.0,64,0.00,,---,0.00,VWS V14.01,2013-09-02 04:15:00,
2013-09-02 10:00:00,92.9,80.8,29.71,South,169,2.0,6.0,68,0.00,,---,0.00,VWS V14.01,2013-09-02 04:30:00,
2013-09-02 10:15:00,90.5,80.7,29.71,ESE,117,1.0,11.0,73,0.00,,---,0.00,VWS V14.01,2013-09-02 04:45:00,
2013-09-02 10:30:00,89.9,80.9,29.71,ESE,119,3.0,11.0,75,0.00,,---,0.00,VWS V14.01,2013-09-02 05:00:00,
2013-09-02 10:45:00,89.9,80.9,29.70,SE,127,0.0,11.0,75,0.00,,---,0.00,VWS V14.01,2013-09-02 05:15:00,
2013-09-02 11:00:00,91.2,81.3,29.71,SE,130,3.0,10.0,73,0.00,,---,0.00,VWS V14.01,2013-09-02 05:30:00,
2013-09-02 11:15:00,90.5,81.5,29.70,ESE,119,3.0,11.0,75,0.00,,---,0.00,VWS V14.01,2013-09-02 05:45:00,
2013-09-02 11:30:00,89.9,80.5,29.69,ESE,116,4.0,10.0,74,0.00,,---,0.00,VWS V14.01,2013-09-02 06:00:00,
2013-09-02 11:45:00,89.9,81.3,29.69,SE,127,0.0,10.0,76,0.00,,---,0.00,VWS V14.01,2013-09-02 06:15:00,
2013-09-02 12:00:00,90.3,80.9,29.68,SE,132,0.0,12.0,74,0.00,,---,0.00,VWS V14.01,2013-09-02 06:30:00,
2013-09-02 12:15:00,90.3,80.5,29.67,SE,138,10.0,13.0,73,0.00,,---,0.00,VWS V14.01,2013-09-02 06:45:00,
2013-09-02 12:30:00,91.2,81.3,29.67,SE,138,3.0,11.0,73,0.00,,---,0.00,VWS V14.01,2013-09-02 07:00:00,
2013-09-02 12:45:00,90.7,80.9,29.66,SE,144,10.0,14.0,73,0.00,,---,0.00,VWS V14.01,2013-09-02 07:15:00,
2013-09-02 13:00:00,89.9,80.5,29.65,SE,136,6.0,11.0,74,0.00,,---,0.00,VWS V14.01,2013-09-02 07:30:00,
2013-09-02 13:15:00,89.3,80.3,29.64,SE,144,7.0,13.0,75,0.00,,---,0.00,VWS V14.01,2013-09-02 07:45:00,
2013-09-02 13:30:00,89.3,80.3,29.64,SE,134,0.0,12.0,75,0.00,,---,0.00,VWS V14.01,2013-09-02 08:00:00,
2013-09-02 13:45:00,89.9,80.5,29.63,SE,133,0.0,11.0,74,0.00,,---,0.00,VWS V14.01,2013-09-02 08:15:00,
2013-09-02 14:00:00,88.8,80.3,29.62,SE,131,4.0,11.0,76,0.00,,---,0.00,VWS V14.01,2013-09-02 08:30:00,
2013-09-02 14:15:00,88.8,80.3,29.61,SE,129,0.0,10.0,76,0.00,,---,0.00,VWS V14.01,2013-09-02 08:45:00,
2013-09-02 14:30:00,89.5,80.5,29.60,ESE,117,6.0,13.0,75,0.00,,---,0.00,VWS V14.01,2013-09-02 09:00:00,
2013-09-02 14:45:00,89.3,79.9,29.60,ESE,117,4.0,12.0,74,0.00,,---,0.00,VWS V14.01,2013-09-02 09:15:00,
2013-09-02 15:00:00,89.7,79.1,29.59,SE,126,0.0,11.0,71,0.00,,---,0.00,VWS V14.01,2013-09-02 09:30:00,
2013-09-02 15:15:00,89.7,77.7,29.59,ESE,117,5.0,12.0,68,0.00,,---,0.00,VWS V14.01,2013-09-02 09:45:00,
2013-09-02 15:30:00,88.6,78.0,29.59,SE,138,1.0,13.0,71,0.00,,---,0.00,VWS V14.01,2013-09-02 10:00:00,
2013-09-02 15:45:00,88.4,78.2,29.59,SE,140,3.0,14.0,72,0.00,,---,0.00,VWS V14.01,2013-09-02 10:15:00,
2013-09-02 16:00:00,88.4,78.2,29.58,SSE,148,4.0,14.0,72,0.00,,---,0.00,VWS V14.01,2013-09-02 10:30:00,
2013-09-02 16:15:00,89.3,77.8,29.59,South,188,3.0,13.0,69,0.00,,---,0.00,VWS V14.01,2013-09-02 10:45:00,
2013-09-02 16:45:00,88.8,77.8,29.61,SSE,161,0.0,12.0,70,0.00,,---,0.00,VWS V14.01,2013-09-02 11:15:00,
2013-09-02 17:00:00,87.8,78.1,29.61,ESE,109,0.0,11.0,73,0.00,,---,0.00,VWS V14.01,2013-09-02 11:30:00,
2013-09-02 17:15:00,87.2,77.1,29.63,SE,130,0.0,12.0,72,0.00,,---,0.00,VWS V14.01,2013-09-02 11:45:00,
2013-09-02 17:30:00,87.0,78.1,29.64,ESE,109,3.0,12.0,75,0.00,,---,0.00,VWS V14.01,2013-09-02 12:00:00,
2013-09-02 17:45:00,86.5,78.0,29.64,SE,144,0.0,7.0,76,0.00,,---,0.00,VWS V14.01,2013-09-02 12:15:00,
2013-09-02 18:00:00,86.5,78.0,29.66,ESE,118,0.0,4.0,76,0.00,,---,0.00,VWS V14.01,2013-09-02 12:30:00,
2013-09-02 18:15:00,86.3,76.2,29.66,NW,317,0.0,6.0,72,0.00,,---,0.00,VWS V14.01,2013-09-02 12:45:00,
2013-09-02 18:30:00,85.9,73.2,29.67,NNW,331,2.0,5.0,66,0.00,,---,0.00,VWS V14.01,2013-09-02 13:00:00,
2013-09-02 18:45:00,85.7,72.1,29.69,NNW,331,0.0,4.0,64,0.00,,---,0.00,VWS V14.01,2013-09-02 13:15:00,
2013-09-02 19:00:00,85.5,71.5,29.70,NNW,328,1.0,10.0,63,0.00,,---,0.00,VWS V14.01,2013-09-02 13:30:00,
2013-09-02 19:15:00,85.3,70.8,29.71,NW,320,0.0,7.0,62,0.00,,---,0.00,VWS V14.01,2013-09-02 13:45:00,
2013-09-02 19:30:00,84.7,71.2,29.70,NNE,12,1.0,10.0,64,0.00,,---,0.00,VWS V14.01,2013-09-02 14:00:00,
2013-09-02 19:45:00,84.1,71.1,29.70,NNE,19,0.0,5.0,65,0.00,,---,0.00,VWS V14.01,2013-09-02 14:15:00,
2013-09-02 20:00:00,84.0,71.9,29.70,NE,41,0.0,5.0,67,0.00,,---,0.00,VWS V14.01,2013-09-02 14:30:00,
2013-09-02 20:15:00,84.0,72.3,29.71,NE,41,0.0,0.0,68,0.00,,---,0.00,VWS V14.01,2013-09-02 14:45:00,
2013-09-02 20:30:00,84.7,72.5,29.72,NE,41,0.0,0.0,67,0.00,,---,0.00,VWS V14.01,2013-09-02 15:00:00,
2013-09-02 20:45:00,85.3,72.7,29.73,NE,41,0.0,0.0,66,0.00,,---,0.00,VWS V14.01,2013-09-02 15:15:00,
2013-09-02 21:00:00,84.9,72.3,29.72,ESE,109,3.0,5.0,66,0.00,,---,0.00,VWS V14.01,2013-09-02 15:30:00,
2013-09-02 21:15:00,84.5,73.2,29.72,SE,137,2.0,5.0,69,0.00,,---,0.00,VWS V14.01,2013-09-02 15:45:00,
2013-09-02 21:30:00,84.3,73.9,29.72,SE,140,0.0,6.0,71,0.00,,---,0.00,VWS V14.01,2013-09-02 16:00:00,
2013-09-02 21:45:00,84.1,74.5,29.72,SE,128,0.0,7.0,73,0.00,,---,0.00,VWS V14.01,2013-09-02 16:15:00,
2013-09-02 22:00:00,84.3,76.3,29.73,SE,138,0.0,10.0,77,0.00,,---,0.00,VWS V14.01,2013-09-02 16:30:00,
2013-09-02 22:15:00,84.9,77.3,29.74,SE,137,0.0,1.0,78,0.00,,---,0.00,VWS V14.01,2013-09-02 16:45:00,
2013-09-02 22:30:00,84.7,77.5,29.74,SE,138,0.0,0.0,79,0.00,,---,0.00,VWS V14.01,2013-09-02 17:00:00,
2013-09-02 22:45:00,84.5,77.7,29.74,SE,138,0.0,0.0,80,0.00,,---,0.00,VWS V14.01,2013-09-02 17:15:00,
2013-09-02 23:00:00,84.5,77.7,29.74,SE,137,0.0,0.0,80,0.00,,---,0.00,VWS V14.01,2013-09-02 17:30:00,
2013-09-02 23:15:00,84.5,78.0,29.73,SE,137,0.0,1.0,81,0.00,,---,0.00,VWS V14.01,2013-09-02 17:45:00,
2013-09-02 23:30:00,84.3,78.2,29.73,SE,137,0.0,1.0,82,0.00,,---,0.00,VWS V14.01,2013-09-02 18:00:00,
2013-09-02 23:45:00,84.3,78.6,29.72,SE,137,0.0,3.0,83,0.00,,---,0.00,VWS V14.01,2013-09-02 18:15:00,